Argyle, New York
Current Conditions -  °F | °C
As of 12:12 PM on Wednesday 26 Nov 2014 (Local Time) from KGFL Reporting Station
Light Snow Light Snow  
Wind Chill: 25°   Ceiling: 2500
Heat Index: 33°   Visibility: 0.75mi
Dew Point: 28°   Wind: 9mph
Humidity: 82%   Direction: 10°N
Pressure: 30.17"   Gusts: NA
Location:  43.24°N, 73.49°W
Report Text: KGFL 261712Z AUTO 01008KT 3/4SM -SN OVC025 01/M02 A3017 RMK AO2 SNB01 P0000 T00061022
Loading
Personal Weather Stations






























Interactive Weather Map New forecast layout! Learn more

10-Day Weather Forecast

Advertisements
Track Severe Weather on mobile